createdAt,value
2023-07-27T00:01:54.567Z,17.27
2023-07-27T00:06:44.629Z,17.18
2023-07-27T00:11:34.508Z,17.01
2023-07-27T00:16:27.274Z,16.84
2023-07-27T00:21:17.408Z,16.57
2023-07-27T00:26:07.314Z,16.63
2023-07-27T00:30:57.282Z,16.40
2023-07-27T00:35:57.659Z,16.32
2023-07-27T00:40:50.795Z,16.20
2023-07-27T00:45:41.303Z,16.19
2023-07-27T00:50:31.327Z,15.87
2023-07-27T00:55:24.215Z,15.86
2023-07-27T01:00:15.761Z,15.86
2023-07-27T01:05:08.017Z,15.81
2023-07-27T01:09:58.230Z,15.85
2023-07-27T01:14:56.726Z,15.97
2023-07-27T01:20:15.110Z,15.92
2023-07-27T01:25:30.157Z,15.82
2023-07-27T01:30:46.663Z,15.90
2023-07-27T01:35:44.197Z,15.82
2023-07-27T01:40:36.449Z,15.87
2023-07-27T01:45:27.609Z,15.86
2023-07-27T01:50:18.907Z,15.87
2023-07-27T01:55:13.579Z,15.32
2023-07-27T02:00:04.352Z,15.66
2023-07-27T02:05:04.379Z,15.57
2023-07-27T02:09:54.617Z,15.59
2023-07-27T02:14:51.014Z,15.51
2023-07-27T02:19:44.122Z,15.75
2023-07-27T02:24:36.508Z,15.72
2023-07-27T02:29:26.545Z,15.59
2023-07-27T02:34:19.153Z,15.64
2023-07-27T02:39:09.661Z,15.34
2023-07-27T02:44:01.026Z,15.43
2023-07-27T02:48:54.762Z,15.45
2023-07-27T02:53:47.533Z,15.35
2023-07-27T02:58:44.117Z,15.22
2023-07-27T03:03:34.486Z,15.14
2023-07-27T03:08:31.719Z,15.17
2023-07-27T03:13:24.773Z,15.20
2023-07-27T03:18:14.865Z,14.96
2023-07-27T03:23:05.295Z,14.96
2023-07-27T03:27:55.372Z,14.84
2023-07-27T03:32:47.977Z,14.89
2023-07-27T03:37:37.962Z,14.95
2023-07-27T03:42:28.133Z,14.84
2023-07-27T03:47:18.145Z,14.88
2023-07-27T03:52:11.553Z,14.81
2023-07-27T03:57:01.623Z,14.90
2023-07-27T04:01:51.732Z,14.70
2023-07-27T04:06:43.376Z,14.84
2023-07-27T04:11:38.519Z,14.74
2023-07-27T04:16:28.423Z,14.86
2023-07-27T04:21:18.525Z,14.78
2023-07-27T04:26:08.498Z,14.82
2023-07-27T04:31:03.142Z,14.98
2023-07-27T04:35:53.079Z,15.02
2023-07-27T04:40:43.006Z,14.92
2023-07-27T04:45:33.339Z,14.87
2023-07-27T04:50:25.897Z,15.08
2023-07-27T04:55:15.900Z,15.09
2023-07-27T05:00:06.340Z,14.94
2023-07-27T05:04:56.277Z,15.16
2023-07-27T05:09:48.973Z,15.20
2023-07-27T05:14:39.004Z,15.11
2023-07-27T05:19:28.981Z,15.21
2023-07-27T05:24:18.985Z,15.02
2023-07-27T05:29:14.763Z,15.36
2023-07-27T05:34:04.653Z,15.40
2023-07-27T05:38:54.658Z,15.32
2023-07-27T05:43:44.721Z,15.41
2023-07-27T05:48:37.479Z,15.43
2023-07-27T05:53:27.780Z,15.47
2023-07-27T05:58:24.750Z,15.61
2023-07-27T06:03:16.099Z,15.64
2023-07-27T06:08:09.103Z,15.61
2023-07-27T06:12:59.198Z,15.76
2023-07-27T06:17:49.240Z,15.76
2023-07-27T06:22:39.294Z,15.93
2023-07-27T06:27:31.751Z,16.00
2023-07-27T06:32:21.948Z,15.95
2023-07-27T06:37:12.079Z,16.12
2023-07-27T06:42:02.058Z,16.17
2023-07-27T06:46:58.319Z,16.14
2023-07-27T06:51:48.849Z,16.33
2023-07-27T06:56:38.967Z,16.08
2023-07-27T07:01:29.157Z,16.36
2023-07-27T07:06:23.152Z,16.38
2023-07-27T07:11:13.150Z,16.29
2023-07-27T07:16:03.340Z,16.40
2023-07-27T07:20:53.489Z,16.41
2023-07-27T07:25:46.062Z,16.37
2023-07-27T07:30:36.157Z,16.38
2023-07-27T07:35:29.195Z,16.44
2023-07-27T07:40:21.694Z,16.34
2023-07-27T07:45:14.592Z,16.51
2023-07-27T07:50:05.872Z,16.56
2023-07-27T07:54:55.925Z,16.41
2023-07-27T07:59:46.209Z,16.27
2023-07-27T08:04:39.032Z,16.26
2023-07-27T08:09:29.107Z,16.26
2023-07-27T08:14:19.362Z,16.45
2023-07-27T08:19:09.426Z,16.76
2023-07-27T08:24:02.082Z,16.83
2023-07-27T08:28:51.952Z,16.87
2023-07-27T08:33:42.067Z,16.84
2023-07-27T08:38:32.571Z,16.82
2023-07-27T08:43:26.209Z,16.92
2023-07-27T08:48:18.264Z,16.94
2023-07-27T08:53:08.321Z,16.88
2023-07-27T08:57:58.285Z,16.96
2023-07-27T09:02:50.920Z,16.67
2023-07-27T09:07:41.259Z,16.98
2023-07-27T09:12:31.252Z,17.00
2023-07-27T09:17:21.472Z,17.17
2023-07-27T09:22:15.920Z,17.16
2023-07-27T09:27:12.330Z,17.28
2023-07-27T09:32:02.359Z,17.19
2023-07-27T09:36:52.476Z,17.35
2023-07-27T09:41:47.572Z,17.30
2023-07-27T09:46:38.126Z,17.47
2023-07-27T09:51:30.598Z,17.44
2023-07-27T09:56:45.437Z,17.67
2023-07-27T10:01:38.632Z,17.33
2023-07-27T10:06:30.094Z,17.59
2023-07-27T10:11:20.196Z,17.68
2023-07-27T10:16:16.028Z,17.74
2023-07-27T10:21:33.764Z,17.78
2023-07-27T10:26:24.125Z,17.81
2023-07-27T10:31:21.695Z,17.90
2023-07-27T10:36:11.767Z,17.88
2023-07-27T10:41:15.605Z,17.95
2023-07-27T10:46:05.644Z,18.02
2023-07-27T10:50:56.136Z,17.97
2023-07-27T10:55:49.750Z,17.61
2023-07-27T11:00:43.621Z,17.99
2023-07-27T11:05:33.635Z,17.77
2023-07-27T11:10:35.041Z,18.08
2023-07-27T11:15:26.788Z,18.13
2023-07-27T11:20:22.276Z,18.13
2023-07-27T11:25:14.129Z,18.19
2023-07-27T11:30:05.857Z,18.31
2023-07-27T11:34:57.915Z,18.21
2023-07-27T11:39:50.567Z,18.20
2023-07-27T11:44:42.072Z,18.25
2023-07-27T11:49:32.764Z,17.86
2023-07-27T11:54:27.797Z,18.20
2023-07-27T11:59:30.976Z,18.31
2023-07-27T12:04:27.088Z,17.89
2023-07-27T12:09:17.633Z,18.30
2023-07-27T12:14:08.497Z,18.18
2023-07-27T12:19:01.105Z,18.23
2023-07-27T12:24:25.676Z,17.79
2023-07-27T12:33:54.053Z,18.11
2023-07-27T12:38:47.898Z,18.12
2023-07-27T12:43:38.108Z,18.06
2023-07-27T12:48:28.016Z,17.91
2023-07-27T12:53:18.489Z,17.99
2023-07-27T12:58:11.208Z,17.95
2023-07-27T13:03:01.407Z,18.02
2023-07-27T13:07:51.434Z,18.09
2023-07-27T13:12:41.617Z,17.65
2023-07-27T13:17:35.273Z,18.10
2023-07-27T13:22:25.463Z,18.02
2023-07-27T13:27:15.464Z,17.98
2023-07-27T13:32:05.760Z,17.92
2023-07-27T13:36:58.488Z,18.04
2023-07-27T13:41:49.088Z,18.00
2023-07-27T13:46:39.013Z,17.92
2023-07-27T13:51:29.269Z,17.89
2023-07-27T13:56:23.564Z,17.71
2023-07-27T14:01:13.519Z,18.08
2023-07-27T14:06:03.522Z,18.04
2023-07-27T14:10:53.687Z,18.14
2023-07-27T14:15:46.639Z,18.02
2023-07-27T14:20:36.701Z,18.02
2023-07-27T14:25:26.654Z,17.86
2023-07-27T14:30:16.582Z,18.06
2023-07-27T14:35:10.243Z,17.98
2023-07-27T14:40:00.452Z,18.12
2023-07-27T14:44:50.868Z,17.99
2023-07-27T14:49:40.894Z,18.08
2023-07-27T14:54:33.740Z,18.14
2023-07-27T14:59:25.457Z,17.98
2023-07-27T15:09:10.929Z,18.03
2023-07-27T15:14:03.832Z,18.12
2023-07-27T15:18:53.751Z,18.11
2023-07-27T15:23:43.868Z,18.09
2023-07-27T15:28:35.919Z,18.07
2023-07-27T15:33:30.223Z,17.76
2023-07-27T15:38:20.867Z,18.02
2023-07-27T15:43:10.814Z,17.80
2023-07-27T15:48:00.904Z,17.95
2023-07-27T15:52:53.902Z,17.88
2023-07-27T15:57:44.004Z,17.83
2023-07-27T16:02:34.120Z,17.76
2023-07-27T16:07:24.440Z,17.84
2023-07-27T16:12:17.341Z,17.46
2023-07-27T16:17:08.057Z,17.67
2023-07-27T16:21:58.145Z,17.79
2023-07-27T16:26:48.128Z,17.78
2023-07-27T16:31:41.366Z,17.85
2023-07-27T16:36:31.536Z,17.86
2023-07-27T16:41:21.500Z,17.90
2023-07-27T16:46:11.644Z,17.84
2023-07-27T16:51:09.340Z,17.91
2023-07-27T16:55:59.699Z,17.91
2023-07-27T17:00:50.204Z,17.91
2023-07-27T17:05:43.801Z,17.71
2023-07-27T17:10:36.613Z,17.90
2023-07-27T17:15:26.656Z,17.88
2023-07-27T17:20:17.170Z,17.76
2023-07-27T17:25:07.915Z,17.78
2023-07-27T17:30:01.903Z,17.73
2023-07-27T17:34:53.274Z,17.79
2023-07-27T17:39:43.574Z,17.73
2023-07-27T17:44:33.595Z,17.70
2023-07-27T17:49:26.533Z,17.67
2023-07-27T17:54:16.677Z,17.47
2023-07-27T17:59:06.760Z,17.63
2023-07-27T18:03:58.298Z,17.73
2023-07-27T18:08:53.082Z,17.72
2023-07-27T18:13:44.529Z,17.76
2023-07-27T18:18:34.631Z,17.71
2023-07-27T18:23:24.688Z,17.76
2023-07-27T18:28:17.222Z,17.60
2023-07-27T18:33:07.645Z,17.72
2023-07-27T18:37:57.619Z,17.47
2023-07-27T18:42:48.523Z,17.74
2023-07-27T18:47:41.458Z,17.74
2023-07-27T18:52:32.919Z,17.70
2023-07-27T18:57:22.920Z,17.77
2023-07-27T19:02:12.901Z,17.45
2023-07-27T19:07:05.411Z,17.63
2023-07-27T19:11:55.419Z,17.59
2023-07-27T19:16:47.816Z,17.70
2023-07-27T19:21:37.857Z,17.55
2023-07-27T19:27:04.289Z,17.61
2023-07-27T19:31:54.995Z,17.62
2023-07-27T19:36:45.096Z,17.62
2023-07-27T19:41:34.963Z,17.65
2023-07-27T19:46:27.551Z,17.22
2023-07-27T19:51:17.868Z,17.50
2023-07-27T19:56:09.571Z,17.45
2023-07-27T20:01:01.101Z,17.50
2023-07-27T20:05:53.826Z,17.49
2023-07-27T20:10:43.895Z,17.49
2023-07-27T20:15:33.803Z,17.47
2023-07-27T20:20:23.820Z,17.49
2023-07-27T20:25:16.691Z,17.49
2023-07-27T20:30:07.115Z,17.22
2023-07-27T20:34:58.801Z,17.58
2023-07-27T20:39:50.919Z,17.51
2023-07-27T20:44:44.406Z,17.42
2023-07-27T20:49:35.349Z,17.17
2023-07-27T20:54:25.271Z,17.42
2023-07-27T20:59:15.245Z,17.39
2023-07-27T21:04:08.285Z,17.52
2023-07-27T21:08:58.426Z,17.52
2023-07-27T21:13:48.406Z,17.41
2023-07-27T21:18:39.488Z,17.48
2023-07-27T21:23:32.429Z,17.47
2023-07-27T21:28:22.363Z,17.38
2023-07-27T21:33:26.297Z,17.39
2023-07-27T21:38:17.657Z,17.57
2023-07-27T21:43:10.548Z,17.25
2023-07-27T21:48:00.698Z,17.59
2023-07-27T21:52:51.306Z,17.54
2023-07-27T21:57:41.277Z,17.54
2023-07-27T22:02:36.143Z,17.60
2023-07-27T22:07:26.179Z,17.53
2023-07-27T22:12:16.251Z,17.47
2023-07-27T22:17:06.251Z,17.62
2023-07-27T22:21:58.794Z,17.43
2023-07-27T22:26:48.720Z,17.10
2023-07-27T22:31:38.862Z,17.37
2023-07-27T22:36:28.973Z,17.42
2023-07-27T22:41:21.606Z,17.48
2023-07-27T22:46:11.727Z,17.34
2023-07-27T22:51:01.625Z,17.43
2023-07-27T22:55:53.645Z,17.47
2023-07-27T23:00:46.636Z,17.60
2023-07-27T23:05:37.125Z,17.34
2023-07-27T23:10:27.141Z,17.46
2023-07-27T23:15:17.416Z,17.53
2023-07-27T23:20:11.610Z,17.58
2023-07-27T23:25:01.494Z,17.59
2023-07-27T23:29:51.708Z,17.59
2023-07-27T23:34:41.725Z,17.60
2023-07-27T23:39:34.794Z,17.25
2023-07-27T23:44:24.705Z,17.57
2023-07-27T23:49:14.696Z,17.45
2023-07-27T23:54:05.254Z,17.61
2023-07-27T23:58:57.893Z,17.45
